South Park Village, Washington
Current Conditions -  °F | °C
As of 7:55 AM on Sunday 23 Nov 2014 (Local Time) from KPWT Reporting Station
Overcast Overcast  
Wind Chill: 40°   Ceiling: 1200
Heat Index: 46°   Visibility: 10mi
Dew Point: 46°   Wind: 14mph
Humidity: 100%   Direction: 180°S
Pressure: 30.07"   Gusts: 18mph
Location:  47.5378°N, 122.589°W
Report Text: KPWT 231555Z AUTO 18012G16KT 10SM SCT008 BKN012 OVC032 08/08 A3007 RMK AO1 P0034
Loading
Personal Weather Stations






























Interactive Weather Map New forecast layout! Learn more

10-Day Weather Forecast

Advertisements
Track Severe Weather on mobile